createdAt,value
2023-05-02T00:00:25.021Z,16.52
2023-05-02T00:02:54.594Z,16.60
2023-05-02T00:05:24.126Z,15.35
2023-05-02T00:07:54.348Z,16.40
2023-05-02T00:10:23.701Z,15.50
2023-05-02T00:12:53.069Z,15.48
2023-05-02T00:15:22.522Z,18.50
2023-05-02T00:17:52.002Z,16.13
2023-05-02T00:20:21.572Z,15.65
2023-05-02T00:22:50.951Z,16.60
2023-05-02T00:25:20.439Z,15.98
2023-05-02T00:27:51.315Z,16.15
2023-05-02T00:30:21.473Z,16.45
2023-05-02T00:32:51.078Z,16.85
2023-05-02T00:35:20.562Z,15.65
2023-05-02T00:37:49.994Z,15.10
2023-05-02T00:40:19.431Z,15.45
2023-05-02T00:42:48.807Z,13.70
2023-05-02T00:45:18.727Z,15.98
2023-05-02T00:47:48.359Z,18.05
2023-05-02T00:50:17.925Z,15.20
2023-05-02T00:52:47.596Z,14.13
2023-05-02T00:55:16.997Z,16.23
2023-05-02T00:57:46.575Z,15.75
2023-05-02T01:00:16.291Z,16.67
2023-05-02T01:02:48.794Z,15.93
2023-05-02T01:05:20.870Z,15.70
2023-05-02T01:07:54.364Z,16.23
2023-05-02T01:10:37.149Z,16.10
2023-05-02T01:13:11.002Z,13.50
2023-05-02T01:15:45.528Z,13.45
2023-05-02T01:18:18.674Z,10.35
2023-05-02T01:20:49.267Z,11.27
2023-05-02T01:23:28.916Z,10.68
2023-05-02T01:26:16.993Z,9.63
2023-05-02T01:28:49.972Z,10.13
2023-05-02T01:31:19.645Z,10.90
2023-05-02T01:33:49.766Z,11.70
2023-05-02T01:36:19.851Z,11.38
2023-05-02T01:38:50.368Z,10.25
2023-05-02T01:41:19.812Z,11.60
2023-05-02T01:43:49.988Z,12.77
2023-05-02T01:46:20.482Z,13.75
2023-05-02T01:48:51.881Z,14.55
2023-05-02T01:51:21.856Z,15.18
2023-05-02T01:53:51.960Z,14.20
2023-05-02T01:56:22.318Z,15.93
2023-05-02T01:58:52.268Z,14.70
2023-05-02T02:01:22.478Z,14.07
2023-05-02T02:03:52.172Z,15.38
2023-05-02T02:06:22.485Z,16.20
2023-05-02T02:08:52.170Z,15.82
2023-05-02T02:11:25.693Z,15.25
2023-05-02T02:13:58.048Z,15.27
2023-05-02T02:18:57.970Z,15.23
2023-05-02T02:21:32.083Z,14.77
2023-05-02T02:24:03.772Z,14.75
2023-05-02T02:26:33.171Z,15.52
2023-05-02T02:29:06.511Z,14.73
2023-05-02T02:31:36.579Z,15.70
2023-05-02T02:34:06.397Z,13.73
2023-05-02T02:36:38.787Z,15.05
2023-05-02T17:01:20.758Z,2.67
2023-05-02T17:03:50.259Z,3.20
2023-05-02T17:06:19.867Z,3.05
2023-05-02T17:08:49.575Z,2.88
2023-05-02T17:11:19.325Z,3.33
2023-05-02T17:13:49.924Z,2.75
2023-05-02T17:16:20.827Z,2.92
2023-05-02T17:18:50.936Z,4.00
2023-05-02T17:21:20.515Z,2.92
2023-05-02T17:23:50.293Z,2.60
2023-05-02T17:26:19.708Z,2.42
2023-05-02T17:28:50.448Z,3.20
2023-05-02T17:31:20.564Z,2.67
2023-05-02T17:33:49.975Z,2.60
2023-05-02T17:36:19.363Z,2.85
2023-05-02T17:38:48.764Z,3.38
2023-05-02T17:41:18.136Z,2.78
2023-05-02T17:43:48.864Z,2.35
2023-05-02T17:46:18.301Z,2.78
2023-05-02T17:48:48.123Z,2.78
2023-05-02T17:51:17.539Z,2.30
2023-05-02T17:53:47.454Z,2.50
2023-05-02T17:56:18.978Z,2.55
2023-05-02T17:58:48.781Z,2.40
2023-05-02T18:01:18.225Z,2.20
2023-05-02T18:03:48.311Z,2.83
2023-05-02T18:06:18.720Z,2.35
2023-05-02T18:08:48.439Z,3.35
2023-05-02T18:11:19.391Z,2.58
2023-05-02T18:13:49.606Z,2.13
2023-05-02T18:16:19.183Z,2.35
2023-05-02T18:18:48.670Z,2.50
2023-05-02T18:21:26.001Z,2.25
2023-05-02T18:23:56.751Z,2.20
2023-05-02T18:26:26.565Z,2.03
2023-05-02T18:28:56.059Z,2.17
2023-05-02T18:31:25.711Z,2.30
2023-05-02T18:33:58.019Z,2.28
2023-05-02T18:36:31.708Z,2.28
2023-05-02T18:39:01.126Z,2.35
2023-05-02T18:41:30.595Z,2.28
2023-05-02T18:44:00.757Z,2.70
2023-05-02T18:46:30.525Z,2.03
2023-05-02T18:49:00.436Z,2.08
2023-05-02T18:51:30.317Z,2.20
2023-05-02T18:53:59.668Z,2.10
2023-05-02T18:56:29.047Z,2.10
2023-05-02T18:58:58.960Z,2.30
2023-05-02T19:01:28.509Z,2.28
2023-05-02T19:03:59.172Z,2.13
2023-05-02T19:06:29.659Z,1.90
2023-05-02T19:08:59.155Z,2.17
2023-05-02T19:11:28.622Z,2.40
2023-05-02T19:14:00.820Z,3.00
2023-05-02T19:16:30.421Z,2.05
2023-05-02T19:19:00.272Z,2.10
2023-05-02T19:21:29.690Z,2.00
2023-05-02T19:23:59.486Z,3.05
2023-05-02T19:26:28.982Z,2.00
2023-05-02T19:28:58.517Z,1.90
2023-05-02T19:31:28.195Z,1.90
2023-05-02T19:33:57.557Z,2.40
2023-05-02T19:36:27.596Z,2.70
2023-05-02T19:38:58.359Z,2.22
2023-05-02T19:41:27.997Z,2.28
2023-05-02T19:43:59.465Z,2.40
2023-05-02T19:46:30.512Z,2.40
2023-05-02T19:48:59.981Z,2.40
2023-05-02T19:51:29.799Z,2.58
2023-05-02T19:53:59.718Z,2.20
2023-05-02T19:56:30.167Z,2.08
2023-05-02T19:58:59.920Z,2.00
2023-05-02T20:01:31.462Z,2.38
2023-05-02T20:04:01.136Z,2.33
2023-05-02T20:06:32.437Z,2.28
2023-05-02T20:09:01.926Z,2.20
2023-05-02T20:11:32.934Z,1.92
2023-05-02T20:14:03.042Z,2.33
2023-05-02T20:16:32.538Z,1.95
2023-05-02T20:19:01.962Z,2.00
2023-05-02T20:21:31.481Z,1.98
2023-05-02T20:24:01.016Z,2.17
2023-05-02T20:26:31.481Z,2.33
2023-05-02T20:29:03.517Z,2.67
2023-05-02T20:31:33.494Z,2.35
2023-05-02T20:34:03.011Z,2.35
2023-05-02T20:36:32.422Z,2.38
2023-05-02T20:39:04.068Z,2.10
2023-05-02T20:41:35.113Z,3.13
2023-05-02T20:44:05.132Z,2.03
2023-05-02T20:46:34.660Z,2.25
2023-05-02T20:49:05.911Z,2.15
2023-05-02T20:51:35.324Z,1.80
2023-05-02T20:54:04.772Z,2.38
2023-05-02T20:56:34.166Z,2.10
2023-05-02T20:59:03.586Z,2.00
2023-05-02T21:01:33.591Z,2.30
2023-05-02T21:04:03.647Z,1.65
2023-05-02T21:06:33.493Z,2.20
2023-05-02T21:09:03.790Z,1.98
2023-05-02T21:11:33.276Z,2.67
2023-05-02T21:14:02.728Z,2.17
2023-05-02T21:16:32.162Z,2.00
2023-05-02T21:19:01.588Z,2.10
2023-05-02T21:21:31.060Z,2.58
2023-05-02T21:24:01.082Z,2.35
2023-05-02T21:26:30.817Z,2.30
2023-05-02T21:29:00.310Z,2.70
2023-05-02T21:31:29.819Z,2.35
2023-05-02T21:33:59.256Z,2.45
2023-05-02T21:36:28.808Z,1.85
2023-05-02T21:38:58.204Z,2.20
2023-05-02T21:41:27.601Z,2.40
2023-05-02T21:43:57.169Z,1.85
2023-05-02T21:46:26.605Z,2.30
2023-05-02T21:48:56.049Z,2.10
2023-05-02T21:51:25.465Z,2.20
2023-05-02T21:53:55.511Z,2.40
2023-05-02T21:56:24.912Z,2.10
2023-05-02T21:58:54.322Z,2.00
2023-05-02T22:01:23.863Z,2.30
2023-05-02T22:03:53.609Z,2.30
2023-05-02T22:06:23.020Z,2.38
2023-05-02T22:08:52.416Z,2.25
2023-05-02T22:11:24.340Z,1.90
2023-05-02T22:13:53.896Z,2.38
2023-05-02T22:16:23.288Z,1.83
2023-05-02T22:18:52.706Z,2.33
2023-05-02T22:21:22.513Z,2.53
2023-05-02T22:23:51.897Z,2.03
2023-05-02T22:26:21.308Z,2.05
2023-05-02T22:28:51.035Z,2.65
2023-05-02T22:31:20.835Z,2.30
2023-05-02T22:33:50.346Z,2.20
2023-05-02T22:36:20.624Z,2.30
2023-05-02T22:38:50.033Z,2.28
2023-05-02T22:41:19.447Z,1.70
2023-05-02T22:43:48.836Z,2.55
2023-05-02T22:46:18.365Z,2.17
2023-05-02T22:48:49.270Z,2.38
2023-05-02T22:51:19.190Z,2.42
2023-05-02T22:53:49.326Z,2.42
2023-05-02T22:56:18.721Z,2.45
2023-05-02T22:58:50.011Z,2.40
2023-05-02T23:01:19.476Z,2.63
2023-05-02T23:03:49.268Z,3.85
2023-05-02T23:06:19.616Z,2.70
2023-05-02T23:08:49.092Z,2.75
2023-05-02T23:11:19.176Z,2.65
2023-05-02T23:13:48.706Z,2.92
2023-05-02T23:16:18.301Z,2.80
2023-05-02T23:18:49.602Z,2.58
2023-05-02T23:21:19.481Z,3.13
2023-05-02T23:23:48.890Z,2.35
2023-05-02T23:26:18.304Z,2.90
2023-05-02T23:28:47.703Z,2.40
2023-05-02T23:31:17.214Z,2.40
2023-05-02T23:33:46.679Z,3.00
2023-05-02T23:36:16.419Z,3.15
2023-05-02T23:38:45.954Z,2.88
2023-05-02T23:41:15.325Z,2.90
2023-05-02T23:43:44.661Z,2.53
2023-05-02T23:46:14.071Z,2.65
2023-05-02T23:48:43.707Z,3.13
2023-05-02T23:51:13.084Z,2.10
2023-05-02T23:53:42.502Z,2.60
2023-05-02T23:56:11.893Z,2.47
2023-05-02T23:58:41.314Z,2.33
